sensor_id;sensor_type;location;lat;lon;timestamp;P1;durP1;ratioP1;P2;durP2;ratioP2
77350;SDS011;66420;50.246;14.320;2024-02-23T00:00:03;2.92;;;1.00;;
77350;SDS011;66420;50.246;14.320;2024-02-23T00:02:49;2.42;;;1.02;;
77350;SDS011;66420;50.246;14.320;2024-02-23T00:05:34;1.65;;;0.80;;
77350;SDS011;66420;50.246;14.320;2024-02-23T00:08:19;2.45;;;0.90;;
77350;SDS011;66420;50.246;14.320;2024-02-23T00:11:03;1.10;;;0.70;;
77350;SDS011;66420;50.246;14.320;2024-02-23T00:13:48;1.92;;;0.77;;
77350;SDS011;66420;50.246;14.320;2024-02-23T00:16:37;3.05;;;0.80;;
77350;SDS011;66420;50.246;14.320;2024-02-23T00:19:23;0.85;;;0.60;;
77350;SDS011;66420;50.246;14.320;2024-02-23T00:22:08;1.90;;;0.90;;
77350;SDS011;66420;50.246;14.320;2024-02-23T00:24:53;1.00;;;0.60;;
77350;SDS011;66420;50.246;14.320;2024-02-23T00:27:37;1.30;;;0.70;;
77350;SDS011;66420;50.246;14.320;2024-02-23T00:30:23;2.03;;;0.90;;
77350;SDS011;66420;50.246;14.320;2024-02-23T00:33:08;2.20;;;0.85;;
77350;SDS011;66420;50.246;14.320;2024-02-23T00:35:54;1.40;;;0.73;;
77350;SDS011;66420;50.246;14.320;2024-02-23T00:38:39;1.40;;;0.80;;
77350;SDS011;66420;50.246;14.320;2024-02-23T00:41:23;1.50;;;0.70;;
77350;SDS011;66420;50.246;14.320;2024-02-23T00:44:08;2.75;;;0.90;;
77350;SDS011;66420;50.246;14.320;2024-02-23T00:46:53;1.60;;;0.60;;
77350;SDS011;66420;50.246;14.320;2024-02-23T00:49:38;2.38;;;0.70;;
77350;SDS011;66420;50.246;14.320;2024-02-23T00:52:23;1.88;;;0.90;;
77350;SDS011;66420;50.246;14.320;2024-02-23T00:55:08;1.55;;;0.80;;
77350;SDS011;66420;50.246;14.320;2024-02-23T00:57:53;1.20;;;0.70;;
77350;SDS011;66420;50.246;14.320;2024-02-23T01:00:38;1.98;;;0.90;;
77350;SDS011;66420;50.246;14.320;2024-02-23T01:03:22;2.33;;;0.80;;
77350;SDS011;66420;50.246;14.320;2024-02-23T01:06:08;2.08;;;0.88;;
77350;SDS011;66420;50.246;14.320;2024-02-23T01:08:52;1.63;;;0.70;;
77350;SDS011;66420;50.246;14.320;2024-02-23T01:11:37;3.33;;;0.77;;
77350;SDS011;66420;50.246;14.320;2024-02-23T01:14:21;1.88;;;0.80;;
77350;SDS011;66420;50.246;14.320;2024-02-23T01:17:06;1.35;;;0.70;;
77350;SDS011;66420;50.246;14.320;2024-02-23T01:19:50;1.33;;;0.70;;
77350;SDS011;66420;50.246;14.320;2024-02-23T01:22:36;1.10;;;0.65;;
77350;SDS011;66420;50.246;14.320;2024-02-23T01:25:21;1.13;;;0.60;;
77350;SDS011;66420;50.246;14.320;2024-02-23T01:28:06;3.13;;;0.88;;
77350;SDS011;66420;50.246;14.320;2024-02-23T01:30:50;1.88;;;0.73;;
77350;SDS011;66420;50.246;14.320;2024-02-23T01:33:35;1.88;;;0.77;;
77350;SDS011;66420;50.246;14.320;2024-02-23T01:36:20;1.67;;;0.82;;
77350;SDS011;66420;50.246;14.320;2024-02-23T01:39:05;1.88;;;0.80;;
77350;SDS011;66420;50.246;14.320;2024-02-23T01:41:50;1.55;;;0.80;;
77350;SDS011;66420;50.246;14.320;2024-02-23T01:44:34;1.23;;;0.63;;
77350;SDS011;66420;50.246;14.320;2024-02-23T01:47:19;1.77;;;0.80;;
77350;SDS011;66420;50.246;14.320;2024-02-23T01:50:04;1.40;;;0.70;;
77350;SDS011;66420;50.246;14.320;2024-02-23T01:52:49;1.52;;;0.60;;
77350;SDS011;66420;50.246;14.320;2024-02-23T01:55:36;2.00;;;0.75;;
77350;SDS011;66420;50.246;14.320;2024-02-23T01:58:21;2.17;;;0.70;;
77350;SDS011;66420;50.246;14.320;2024-02-23T02:01:07;1.20;;;0.60;;
77350;SDS011;66420;50.246;14.320;2024-02-23T02:03:51;2.28;;;0.55;;
77350;SDS011;66420;50.246;14.320;2024-02-23T02:06:36;1.27;;;0.60;;
77350;SDS011;66420;50.246;14.320;2024-02-23T02:09:21;1.15;;;0.60;;
77350;SDS011;66420;50.246;14.320;2024-02-23T02:12:06;1.20;;;0.57;;
77350;SDS011;66420;50.246;14.320;2024-02-23T02:14:51;1.58;;;0.50;;
77350;SDS011;66420;50.246;14.320;2024-02-23T02:17:36;2.83;;;0.50;;
77350;SDS011;66420;50.246;14.320;2024-02-23T02:20:23;1.17;;;0.60;;
77350;SDS011;66420;50.246;14.320;2024-02-23T02:25:55;1.35;;;0.50;;
77350;SDS011;66420;50.246;14.320;2024-02-23T02:28:41;0.68;;;0.50;;
77350;SDS011;66420;50.246;14.320;2024-02-23T02:31:26;1.02;;;0.50;;
77350;SDS011;66420;50.246;14.320;2024-02-23T02:34:11;1.08;;;0.40;;
77350;SDS011;66420;50.246;14.320;2024-02-23T02:36:57;0.40;;;0.30;;
77350;SDS011;66420;50.246;14.320;2024-02-23T02:39:42;0.38;;;0.30;;
77350;SDS011;66420;50.246;14.320;2024-02-23T02:42:26;1.48;;;0.50;;
77350;SDS011;66420;50.246;14.320;2024-02-23T02:45:13;3.47;;;0.30;;
77350;SDS011;66420;50.246;14.320;2024-02-23T02:47:57;2.97;;;0.60;;
77350;SDS011;66420;50.246;14.320;2024-02-23T02:50:44;0.52;;;0.30;;
77350;SDS011;66420;50.246;14.320;2024-02-23T02:53:29;1.17;;;0.47;;
77350;SDS011;66420;50.246;14.320;2024-02-23T02:56:15;0.77;;;0.45;;
77350;SDS011;66420;50.246;14.320;2024-02-23T02:58:59;0.75;;;0.40;;
77350;SDS011;66420;50.246;14.320;2024-02-23T03:01:44;0.30;;;0.30;;
77350;SDS011;66420;50.246;14.320;2024-02-23T03:04:30;1.17;;;0.50;;
77350;SDS011;66420;50.246;14.320;2024-02-23T03:07:14;1.92;;;0.40;;
77350;SDS011;66420;50.246;14.320;2024-02-23T03:10:00;0.93;;;0.50;;
77350;SDS011;66420;50.246;14.320;2024-02-23T03:12:45;0.95;;;0.40;;
77350;SDS011;66420;50.246;14.320;2024-02-23T03:15:30;0.90;;;0.50;;
77350;SDS011;66420;50.246;14.320;2024-02-23T03:18:15;0.70;;;0.43;;
77350;SDS011;66420;50.246;14.320;2024-02-23T03:21:00;0.50;;;0.40;;
77350;SDS011;66420;50.246;14.320;2024-02-23T03:23:45;1.48;;;0.50;;
77350;SDS011;66420;50.246;14.320;2024-02-23T03:26:29;0.47;;;0.30;;
77350;SDS011;66420;50.246;14.320;2024-02-23T03:29:15;2.35;;;0.50;;
77350;SDS011;66420;50.246;14.320;2024-02-23T03:32:00;2.35;;;0.43;;
77350;SDS011;66420;50.246;14.320;2024-02-23T03:34:45;0.90;;;0.50;;
77350;SDS011;66420;50.246;14.320;2024-02-23T03:37:30;0.65;;;0.40;;
77350;SDS011;66420;50.246;14.320;2024-02-23T03:40:15;1.20;;;0.65;;
77350;SDS011;66420;50.246;14.320;2024-02-23T03:43:02;1.95;;;0.50;;
77350;SDS011;66420;50.246;14.320;2024-02-23T03:45:48;0.80;;;0.38;;
77350;SDS011;66420;50.246;14.320;2024-02-23T03:48:32;0.88;;;0.50;;
77350;SDS011;66420;50.246;14.320;2024-02-23T03:51:18;2.35;;;0.40;;
77350;SDS011;66420;50.246;14.320;2024-02-23T03:54:03;1.45;;;0.47;;
77350;SDS011;66420;50.246;14.320;2024-02-23T03:56:47;1.02;;;0.30;;
77350;SDS011;66420;50.246;14.320;2024-02-23T03:59:32;0.70;;;0.40;;
77350;SDS011;66420;50.246;14.320;2024-02-23T04:02:17;1.25;;;0.22;;
77350;SDS011;66420;50.246;14.320;2024-02-23T04:05:01;0.43;;;0.40;;
77350;SDS011;66420;50.246;14.320;2024-02-23T04:07:46;1.52;;;0.40;;
77350;SDS011;66420;50.246;14.320;2024-02-23T04:10:31;4.80;;;0.50;;
77350;SDS011;66420;50.246;14.320;2024-02-23T04:13:16;0.57;;;0.40;;
77350;SDS011;66420;50.246;14.320;2024-02-23T04:16:02;1.00;;;0.50;;
77350;SDS011;66420;50.246;14.320;2024-02-23T04:18:47;1.73;;;0.50;;
77350;SDS011;66420;50.246;14.320;2024-02-23T04:21:31;0.57;;;0.30;;
77350;SDS011;66420;50.246;14.320;2024-02-23T04:24:16;0.40;;;0.40;;
77350;SDS011;66420;50.246;14.320;2024-02-23T04:27:00;1.25;;;0.45;;
77350;SDS011;66420;50.246;14.320;2024-02-23T04:29:45;0.95;;;0.20;;
77350;SDS011;66420;50.246;14.320;2024-02-23T04:32:29;0.65;;;0.40;;
77350;SDS011;66420;50.246;14.320;2024-02-23T04:35:14;3.60;;;0.50;;
77350;SDS011;66420;50.246;14.320;2024-02-23T04:37:59;0.60;;;0.47;;
77350;SDS011;66420;50.246;14.320;2024-02-23T04:40:44;0.52;;;0.47;;
77350;SDS011;66420;50.246;14.320;2024-02-23T04:43:29;1.17;;;0.40;;
77350;SDS011;66420;50.246;14.320;2024-02-23T04:46:14;0.57;;;0.40;;
77350;SDS011;66420;50.246;14.320;2024-02-23T04:49:00;0.88;;;0.30;;
77350;SDS011;66420;50.246;14.320;2024-02-23T04:51:45;2.08;;;0.40;;
77350;SDS011;66420;50.246;14.320;2024-02-23T04:54:30;1.85;;;0.25;;
77350;SDS011;66420;50.246;14.320;2024-02-23T04:57:15;0.60;;;0.30;;
77350;SDS011;66420;50.246;14.320;2024-02-23T05:00:00;0.63;;;0.30;;
77350;SDS011;66420;50.246;14.320;2024-02-23T05:02:46;1.48;;;0.43;;
77350;SDS011;66420;50.246;14.320;2024-02-23T05:05:30;0.65;;;0.40;;
77350;SDS011;66420;50.246;14.320;2024-02-23T05:08:15;0.45;;;0.30;;
77350;SDS011;66420;50.246;14.320;2024-02-23T05:11:00;0.73;;;0.32;;
77350;SDS011;66420;50.246;14.320;2024-02-23T05:13:45;1.65;;;0.40;;
77350;SDS011;66420;50.246;14.320;2024-02-23T05:16:30;1.00;;;0.50;;
77350;SDS011;66420;50.246;14.320;2024-02-23T05:19:14;0.93;;;0.43;;
77350;SDS011;66420;50.246;14.320;2024-02-23T05:21:59;1.27;;;0.50;;
77350;SDS011;66420;50.246;14.320;2024-02-23T05:24:43;0.25;;;0.20;;
77350;SDS011;66420;50.246;14.320;2024-02-23T05:27:29;1.10;;;0.50;;
77350;SDS011;66420;50.246;14.320;2024-02-23T05:30:13;0.88;;;0.40;;
77350;SDS011;66420;50.246;14.320;2024-02-23T05:32:58;0.85;;;0.40;;
77350;SDS011;66420;50.246;14.320;2024-02-23T05:35:43;1.52;;;0.47;;
77350;SDS011;66420;50.246;14.320;2024-02-23T05:38:29;2.22;;;0.50;;
77350;SDS011;66420;50.246;14.320;2024-02-23T05:41:14;0.90;;;0.50;;
77350;SDS011;66420;50.246;14.320;2024-02-23T05:43:59;1.10;;;0.30;;
77350;SDS011;66420;50.246;14.320;2024-02-23T05:46:45;0.75;;;0.40;;
77350;SDS011;66420;50.246;14.320;2024-02-23T05:49:29;2.40;;;0.60;;
77350;SDS011;66420;50.246;14.320;2024-02-23T05:52:14;1.85;;;0.50;;
77350;SDS011;66420;50.246;14.320;2024-02-23T05:54:59;1.90;;;0.65;;
77350;SDS011;66420;50.246;14.320;2024-02-23T05:57:44;1.25;;;0.50;;
77350;SDS011;66420;50.246;14.320;2024-02-23T06:00:28;1.35;;;0.50;;
77350;SDS011;66420;50.246;14.320;2024-02-23T06:03:15;2.72;;;0.43;;
77350;SDS011;66420;50.246;14.320;2024-02-23T06:06:00;0.98;;;0.50;;
77350;SDS011;66420;50.246;14.320;2024-02-23T06:08:45;3.00;;;0.60;;
77350;SDS011;66420;50.246;14.320;2024-02-23T06:11:30;1.65;;;0.82;;
77350;SDS011;66420;50.246;14.320;2024-02-23T06:14:15;0.85;;;0.60;;
77350;SDS011;66420;50.246;14.320;2024-02-23T06:16:59;1.40;;;0.52;;
77350;SDS011;66420;50.246;14.320;2024-02-23T06:19:44;1.85;;;0.60;;
77350;SDS011;66420;50.246;14.320;2024-02-23T06:22:29;1.40;;;0.50;;
77350;SDS011;66420;50.246;14.320;2024-02-23T06:25:14;2.45;;;0.70;;
77350;SDS011;66420;50.246;14.320;2024-02-23T06:27:59;2.50;;;0.70;;
77350;SDS011;66420;50.246;14.320;2024-02-23T06:30:44;2.22;;;0.70;;
77350;SDS011;66420;50.246;14.320;2024-02-23T06:33:28;3.08;;;0.85;;
77350;SDS011;66420;50.246;14.320;2024-02-23T06:36:14;1.85;;;0.60;;
77350;SDS011;66420;50.246;14.320;2024-02-23T06:39:00;1.23;;;0.50;;
77350;SDS011;66420;50.246;14.320;2024-02-23T06:41:45;2.15;;;0.88;;
77350;SDS011;66420;50.246;14.320;2024-02-23T06:44:30;2.42;;;0.60;;
77350;SDS011;66420;50.246;14.320;2024-02-23T06:47:15;1.52;;;0.68;;
77350;SDS011;66420;50.246;14.320;2024-02-23T06:49:59;1.13;;;0.63;;
77350;SDS011;66420;50.246;14.320;2024-02-23T06:52:44;1.15;;;0.65;;
77350;SDS011;66420;50.246;14.320;2024-02-23T06:55:29;1.65;;;0.60;;
77350;SDS011;66420;50.246;14.320;2024-02-23T06:58:14;1.88;;;0.57;;
77350;SDS011;66420;50.246;14.320;2024-02-23T07:01:01;2.05;;;0.63;;
77350;SDS011;66420;50.246;14.320;2024-02-23T07:03:47;2.03;;;0.60;;
77350;SDS011;66420;50.246;14.320;2024-02-23T07:06:35;2.70;;;0.75;;
77350;SDS011;66420;50.246;14.320;2024-02-23T07:09:20;3.35;;;0.70;;
77350;SDS011;66420;50.246;14.320;2024-02-23T07:12:05;1.40;;;0.70;;
77350;SDS011;66420;50.246;14.320;2024-02-23T07:14:51;2.67;;;0.60;;
77350;SDS011;66420;50.246;14.320;2024-02-23T07:17:35;2.15;;;0.70;;
77350;SDS011;66420;50.246;14.320;2024-02-23T07:20:20;1.52;;;0.60;;
77350;SDS011;66420;50.246;14.320;2024-02-23T07:23:05;1.42;;;0.70;;
77350;SDS011;66420;50.246;14.320;2024-02-23T07:25:50;1.95;;;0.60;;
77350;SDS011;66420;50.246;14.320;2024-02-23T07:28:36;1.23;;;0.60;;
77350;SDS011;66420;50.246;14.320;2024-02-23T07:31:21;1.10;;;0.50;;
77350;SDS011;66420;50.246;14.320;2024-02-23T07:34:06;1.40;;;0.50;;
77350;SDS011;66420;50.246;14.320;2024-02-23T07:36:53;1.50;;;0.57;;
77350;SDS011;66420;50.246;14.320;2024-02-23T07:39:38;1.50;;;0.68;;
77350;SDS011;66420;50.246;14.320;2024-02-23T07:42:23;1.90;;;0.70;;
77350;SDS011;66420;50.246;14.320;2024-02-23T07:45:08;3.08;;;0.80;;
77350;SDS011;66420;50.246;14.320;2024-02-23T07:47:53;2.50;;;0.70;;
77350;SDS011;66420;50.246;14.320;2024-02-23T07:50:37;0.75;;;0.50;;
77350;SDS011;66420;50.246;14.320;2024-02-23T07:53:22;1.45;;;0.70;;
77350;SDS011;66420;50.246;14.320;2024-02-23T07:56:07;3.50;;;0.80;;
77350;SDS011;66420;50.246;14.320;2024-02-23T07:58:52;3.40;;;0.93;;
77350;SDS011;66420;50.246;14.320;2024-02-23T08:01:37;2.58;;;0.80;;
77350;SDS011;66420;50.246;14.320;2024-02-23T08:04:24;2.67;;;0.85;;
77350;SDS011;66420;50.246;14.320;2024-02-23T08:07:10;2.80;;;0.75;;
77350;SDS011;66420;50.246;14.320;2024-02-23T08:09:55;1.70;;;0.70;;
77350;SDS011;66420;50.246;14.320;2024-02-23T08:12:39;2.67;;;0.80;;
77350;SDS011;66420;50.246;14.320;2024-02-23T08:15:24;1.80;;;0.70;;
77350;SDS011;66420;50.246;14.320;2024-02-23T08:18:09;1.35;;;0.60;;
77350;SDS011;66420;50.246;14.320;2024-02-23T08:20:54;3.05;;;1.00;;
77350;SDS011;66420;50.246;14.320;2024-02-23T08:23:39;3.03;;;0.70;;
77350;SDS011;66420;50.246;14.320;2024-02-23T08:26:23;2.38;;;0.80;;
77350;SDS011;66420;50.246;14.320;2024-02-23T08:29:08;1.30;;;0.60;;
77350;SDS011;66420;50.246;14.320;2024-02-23T08:31:53;1.48;;;0.65;;
77350;SDS011;66420;50.246;14.320;2024-02-23T08:34:37;4.18;;;0.80;;
77350;SDS011;66420;50.246;14.320;2024-02-23T08:37:22;2.50;;;0.70;;
77350;SDS011;66420;50.246;14.320;2024-02-23T08:40:07;2.45;;;0.85;;
77350;SDS011;66420;50.246;14.320;2024-02-23T08:42:53;5.28;;;0.75;;
77350;SDS011;66420;50.246;14.320;2024-02-23T08:45:38;1.63;;;0.77;;
77350;SDS011;66420;50.246;14.320;2024-02-23T08:48:22;2.17;;;0.88;;
77350;SDS011;66420;50.246;14.320;2024-02-23T08:51:07;2.88;;;0.80;;
77350;SDS011;66420;50.246;14.320;2024-02-23T08:53:51;2.72;;;0.90;;
77350;SDS011;66420;50.246;14.320;2024-02-23T08:56:39;1.40;;;0.70;;
77350;SDS011;66420;50.246;14.320;2024-02-23T08:59:26;2.08;;;0.80;;
77350;SDS011;66420;50.246;14.320;2024-02-23T09:02:11;2.40;;;0.80;;
77350;SDS011;66420;50.246;14.320;2024-02-23T09:04:56;1.50;;;0.50;;
77350;SDS011;66420;50.246;14.320;2024-02-23T09:07:41;1.48;;;0.55;;
77350;SDS011;66420;50.246;14.320;2024-02-23T09:10:26;3.58;;;0.82;;
77350;SDS011;66420;50.246;14.320;2024-02-23T09:13:10;2.95;;;0.75;;
77350;SDS011;66420;50.246;14.320;2024-02-23T09:15:56;6.07;;;0.90;;
77350;SDS011;66420;50.246;14.320;2024-02-23T09:18:41;4.00;;;0.75;;
77350;SDS011;66420;50.246;14.320;2024-02-23T09:21:25;1.45;;;0.73;;
77350;SDS011;66420;50.246;14.320;2024-02-23T09:24:10;2.05;;;0.80;;
77350;SDS011;66420;50.246;14.320;2024-02-23T09:26:55;3.78;;;0.80;;
77350;SDS011;66420;50.246;14.320;2024-02-23T09:29:40;3.05;;;0.75;;
77350;SDS011;66420;50.246;14.320;2024-02-23T09:32:28;1.38;;;0.68;;
77350;SDS011;66420;50.246;14.320;2024-02-23T09:35:13;4.47;;;0.80;;
77350;SDS011;66420;50.246;14.320;2024-02-23T09:37:58;3.08;;;0.88;;
77350;SDS011;66420;50.246;14.320;2024-02-23T09:40:42;2.38;;;0.63;;
77350;SDS011;66420;50.246;14.320;2024-02-23T09:43:28;2.78;;;0.70;;
77350;SDS011;66420;50.246;14.320;2024-02-23T09:46:16;9.93;;;1.10;;
77350;SDS011;66420;50.246;14.320;2024-02-23T09:49:01;2.83;;;1.20;;
77350;SDS011;66420;50.246;14.320;2024-02-23T09:51:47;4.38;;;1.33;;
77350;SDS011;66420;50.246;14.320;2024-02-23T09:54:33;1.98;;;0.70;;
77350;SDS011;66420;50.246;14.320;2024-02-23T09:57:17;2.10;;;0.70;;
77350;SDS011;66420;50.246;14.320;2024-02-23T10:00:03;3.20;;;0.80;;
77350;SDS011;66420;50.246;14.320;2024-02-23T10:02:51;1.52;;;0.65;;
77350;SDS011;66420;50.246;14.320;2024-02-23T10:05:37;2.83;;;1.23;;
77350;SDS011;66420;50.246;14.320;2024-02-23T10:08:22;3.63;;;0.90;;
77350;SDS011;66420;50.246;14.320;2024-02-23T10:11:07;1.50;;;0.60;;
77350;SDS011;66420;50.246;14.320;2024-02-23T10:13:52;1.67;;;0.82;;
77350;SDS011;66420;50.246;14.320;2024-02-23T10:16:37;2.72;;;1.02;;
77350;SDS011;66420;50.246;14.320;2024-02-23T10:19:22;4.78;;;1.08;;
77350;SDS011;66420;50.246;14.320;2024-02-23T10:22:07;3.08;;;1.10;;
77350;SDS011;66420;50.246;14.320;2024-02-23T10:24:51;3.60;;;0.90;;
77350;SDS011;66420;50.246;14.320;2024-02-23T10:27:36;4.60;;;0.90;;
77350;SDS011;66420;50.246;14.320;2024-02-23T10:30:21;1.50;;;0.80;;
77350;SDS011;66420;50.246;14.320;2024-02-23T10:33:05;2.00;;;0.90;;
77350;SDS011;66420;50.246;14.320;2024-02-23T10:35:52;2.70;;;0.90;;
77350;SDS011;66420;50.246;14.320;2024-02-23T10:38:41;3.08;;;0.80;;
77350;SDS011;66420;50.246;14.320;2024-02-23T10:41:33;2.95;;;1.17;;
77350;SDS011;66420;50.246;14.320;2024-02-23T10:44:20;2.72;;;0.93;;
77350;SDS011;66420;50.246;14.320;2024-02-23T10:47:05;0.95;;;0.60;;
77350;SDS011;66420;50.246;14.320;2024-02-23T10:49:51;1.67;;;0.70;;
77350;SDS011;66420;50.246;14.320;2024-02-23T10:52:37;2.88;;;1.00;;
77350;SDS011;66420;50.246;14.320;2024-02-23T10:55:23;3.03;;;1.02;;
77350;SDS011;66420;50.246;14.320;2024-02-23T10:58:10;6.13;;;0.88;;
77350;SDS011;66420;50.246;14.320;2024-02-23T11:00:59;3.72;;;0.85;;
77350;SDS011;66420;50.246;14.320;2024-02-23T11:03:45;2.40;;;0.95;;
77350;SDS011;66420;50.246;14.320;2024-02-23T11:06:34;3.30;;;1.00;;
77350;SDS011;66420;50.246;14.320;2024-02-23T11:09:22;3.33;;;1.30;;
77350;SDS011;66420;50.246;14.320;2024-02-23T11:12:08;2.97;;;1.13;;
77350;SDS011;66420;50.246;14.320;2024-02-23T11:14:57;4.28;;;0.98;;
77350;SDS011;66420;50.246;14.320;2024-02-23T11:17:49;4.00;;;1.10;;
77350;SDS011;66420;50.246;14.320;2024-02-23T11:20:35;5.97;;;1.48;;
77350;SDS011;66420;50.246;14.320;2024-02-23T11:23:21;3.97;;;1.17;;
77350;SDS011;66420;50.246;14.320;2024-02-23T11:26:05;2.50;;;0.90;;
77350;SDS011;66420;50.246;14.320;2024-02-23T11:28:53;6.32;;;1.08;;
77350;SDS011;66420;50.246;14.320;2024-02-23T11:31:43;3.08;;;0.80;;
77350;SDS011;66420;50.246;14.320;2024-02-23T11:34:30;4.30;;;1.05;;
77350;SDS011;66420;50.246;14.320;2024-02-23T11:37:15;3.15;;;1.05;;
77350;SDS011;66420;50.246;14.320;2024-02-23T11:40:02;3.22;;;1.08;;
77350;SDS011;66420;50.246;14.320;2024-02-23T11:42:49;1.80;;;0.77;;
77350;SDS011;66420;50.246;14.320;2024-02-23T11:45:35;2.63;;;1.08;;
77350;SDS011;66420;50.246;14.320;2024-02-23T11:48:19;4.68;;;0.90;;
77350;SDS011;66420;50.246;14.320;2024-02-23T11:51:05;3.22;;;0.90;;
77350;SDS011;66420;50.246;14.320;2024-02-23T11:53:51;3.10;;;1.23;;
77350;SDS011;66420;50.246;14.320;2024-02-23T11:56:36;3.00;;;0.98;;
77350;SDS011;66420;50.246;14.320;2024-02-23T11:59:20;2.28;;;0.90;;
77350;SDS011;66420;50.246;14.320;2024-02-23T12:02:06;3.25;;;0.85;;
77350;SDS011;66420;50.246;14.320;2024-02-23T12:04:51;2.08;;;0.90;;
77350;SDS011;66420;50.246;14.320;2024-02-23T12:07:36;2.03;;;0.75;;
77350;SDS011;66420;50.246;14.320;2024-02-23T12:10:21;2.10;;;0.90;;
77350;SDS011;66420;50.246;14.320;2024-02-23T12:13:06;3.00;;;1.10;;
77350;SDS011;66420;50.246;14.320;2024-02-23T12:15:52;4.22;;;1.13;;
77350;SDS011;66420;50.246;14.320;2024-02-23T12:18:37;2.28;;;1.00;;
77350;SDS011;66420;50.246;14.320;2024-02-23T12:21:23;6.47;;;1.05;;
77350;SDS011;66420;50.246;14.320;2024-02-23T12:24:08;6.90;;;1.02;;
77350;SDS011;66420;50.246;14.320;2024-02-23T12:26:56;3.08;;;0.73;;
77350;SDS011;66420;50.246;14.320;2024-02-23T12:29:41;4.95;;;0.88;;
77350;SDS011;66420;50.246;14.320;2024-02-23T12:32:25;2.95;;;0.80;;
77350;SDS011;66420;50.246;14.320;2024-02-23T12:35:14;4.07;;;1.00;;
77350;SDS011;66420;50.246;14.320;2024-02-23T12:37:59;2.42;;;0.90;;
77350;SDS011;66420;50.246;14.320;2024-02-23T12:40:44;2.53;;;0.68;;
77350;SDS011;66420;50.246;14.320;2024-02-23T12:43:29;3.78;;;0.90;;
77350;SDS011;66420;50.246;14.320;2024-02-23T12:46:14;5.47;;;0.70;;
77350;SDS011;66420;50.246;14.320;2024-02-23T12:48:58;2.58;;;1.08;;
77350;SDS011;66420;50.246;14.320;2024-02-23T12:51:43;1.92;;;0.70;;
77350;SDS011;66420;50.246;14.320;2024-02-23T12:54:27;3.67;;;0.90;;
77350;SDS011;66420;50.246;14.320;2024-02-23T12:57:12;2.63;;;0.77;;
77350;SDS011;66420;50.246;14.320;2024-02-23T12:59:57;2.50;;;0.95;;
77350;SDS011;66420;50.246;14.320;2024-02-23T13:02:42;3.58;;;1.08;;
77350;SDS011;66420;50.246;14.320;2024-02-23T13:05:27;1.60;;;0.90;;
77350;SDS011;66420;50.246;14.320;2024-02-23T13:08:12;2.45;;;0.98;;
77350;SDS011;66420;50.246;14.320;2024-02-23T13:10:57;5.15;;;1.20;;
77350;SDS011;66420;50.246;14.320;2024-02-23T13:13:42;4.30;;;1.40;;
77350;SDS011;66420;50.246;14.320;2024-02-23T13:16:28;2.47;;;1.05;;
77350;SDS011;66420;50.246;14.320;2024-02-23T13:19:12;2.92;;;0.85;;
77350;SDS011;66420;50.246;14.320;2024-02-23T13:21:57;2.80;;;0.98;;
77350;SDS011;66420;50.246;14.320;2024-02-23T13:24:44;5.15;;;1.20;;
77350;SDS011;66420;50.246;14.320;2024-02-23T13:27:29;4.38;;;1.20;;
77350;SDS011;66420;50.246;14.320;2024-02-23T13:30:14;3.13;;;1.20;;
77350;SDS011;66420;50.246;14.320;2024-02-23T13:33:00;2.95;;;1.50;;
77350;SDS011;66420;50.246;14.320;2024-02-23T13:35:45;3.70;;;1.48;;
77350;SDS011;66420;50.246;14.320;2024-02-23T13:38:30;4.05;;;1.00;;
77350;SDS011;66420;50.246;14.320;2024-02-23T13:41:14;2.63;;;1.02;;
77350;SDS011;66420;50.246;14.320;2024-02-23T13:43:59;3.47;;;1.10;;
77350;SDS011;66420;50.246;14.320;2024-02-23T13:46:44;2.58;;;1.15;;
77350;SDS011;66420;50.246;14.320;2024-02-23T13:49:29;9.13;;;2.97;;
77350;SDS011;66420;50.246;14.320;2024-02-23T13:52:14;3.50;;;1.00;;
77350;SDS011;66420;50.246;14.320;2024-02-23T13:54:59;4.60;;;1.17;;
77350;SDS011;66420;50.246;14.320;2024-02-23T13:57:44;2.80;;;1.10;;
77350;SDS011;66420;50.246;14.320;2024-02-23T14:00:29;6.70;;;1.20;;
77350;SDS011;66420;50.246;14.320;2024-02-23T14:03:15;4.07;;;1.50;;
77350;SDS011;66420;50.246;14.320;2024-02-23T14:06:02;2.40;;;0.90;;
77350;SDS011;66420;50.246;14.320;2024-02-23T14:08:47;3.30;;;1.38;;
77350;SDS011;66420;50.246;14.320;2024-02-23T14:11:32;4.47;;;1.10;;
77350;SDS011;66420;50.246;14.320;2024-02-23T14:14:16;4.53;;;1.00;;
77350;SDS011;66420;50.246;14.320;2024-02-23T14:17:01;4.10;;;1.67;;
77350;SDS011;66420;50.246;14.320;2024-02-23T14:19:46;4.00;;;1.33;;
77350;SDS011;66420;50.246;14.320;2024-02-23T14:22:31;4.00;;;1.30;;
77350;SDS011;66420;50.246;14.320;2024-02-23T14:25:16;3.85;;;1.30;;
77350;SDS011;66420;50.246;14.320;2024-02-23T14:28:01;2.28;;;0.95;;
77350;SDS011;66420;50.246;14.320;2024-02-23T14:30:45;4.28;;;0.98;;
77350;SDS011;66420;50.246;14.320;2024-02-23T14:33:31;4.18;;;0.90;;
77350;SDS011;66420;50.246;14.320;2024-02-23T14:36:16;3.10;;;1.13;;
77350;SDS011;66420;50.246;14.320;2024-02-23T14:39:01;3.15;;;1.30;;
77350;SDS011;66420;50.246;14.320;2024-02-23T14:41:48;5.28;;;1.20;;
77350;SDS011;66420;50.246;14.320;2024-02-23T14:44:34;3.78;;;0.80;;
77350;SDS011;66420;50.246;14.320;2024-02-23T14:47:21;3.88;;;0.90;;
77350;SDS011;66420;50.246;14.320;2024-02-23T14:50:07;2.20;;;0.90;;
77350;SDS011;66420;50.246;14.320;2024-02-23T14:52:52;3.60;;;1.05;;
77350;SDS011;66420;50.246;14.320;2024-02-23T14:55:37;4.18;;;1.13;;
77350;SDS011;66420;50.246;14.320;2024-02-23T14:58:22;4.63;;;1.10;;
77350;SDS011;66420;50.246;14.320;2024-02-23T15:01:08;8.30;;;1.27;;
77350;SDS011;66420;50.246;14.320;2024-02-23T15:03:53;3.95;;;1.00;;
77350;SDS011;66420;50.246;14.320;2024-02-23T15:06:37;2.30;;;0.90;;
77350;SDS011;66420;50.246;14.320;2024-02-23T15:09:21;3.53;;;1.10;;
77350;SDS011;66420;50.246;14.320;2024-02-23T15:12:06;6.43;;;1.40;;
77350;SDS011;66420;50.246;14.320;2024-02-23T15:14:51;2.97;;;1.08;;
77350;SDS011;66420;50.246;14.320;2024-02-23T15:17:36;3.97;;;1.27;;
77350;SDS011;66420;50.246;14.320;2024-02-23T15:20:21;3.13;;;1.10;;
77350;SDS011;66420;50.246;14.320;2024-02-23T15:23:06;3.10;;;1.20;;
77350;SDS011;66420;50.246;14.320;2024-02-23T15:25:51;4.65;;;1.50;;
77350;SDS011;66420;50.246;14.320;2024-02-23T15:28:36;6.13;;;2.03;;
77350;SDS011;66420;50.246;14.320;2024-02-23T15:31:22;3.75;;;1.40;;
77350;SDS011;66420;50.246;14.320;2024-02-23T15:34:07;6.45;;;1.58;;
77350;SDS011;66420;50.246;14.320;2024-02-23T15:36:51;8.80;;;1.40;;
77350;SDS011;66420;50.246;14.320;2024-02-23T15:39:36;2.65;;;1.13;;
77350;SDS011;66420;50.246;14.320;2024-02-23T15:42:21;3.42;;;1.10;;
77350;SDS011;66420;50.246;14.320;2024-02-23T15:45:06;7.93;;;1.45;;
77350;SDS011;66420;50.246;14.320;2024-02-23T15:47:51;4.80;;;1.10;;
77350;SDS011;66420;50.246;14.320;2024-02-23T15:50:35;3.15;;;1.15;;
77350;SDS011;66420;50.246;14.320;2024-02-23T15:53:20;3.17;;;0.90;;
77350;SDS011;66420;50.246;14.320;2024-02-23T15:56:05;4.80;;;1.45;;
77350;SDS011;66420;50.246;14.320;2024-02-23T15:58:50;5.47;;;1.50;;
77350;SDS011;66420;50.246;14.320;2024-02-23T16:01:35;3.58;;;1.42;;
77350;SDS011;66420;50.246;14.320;2024-02-23T16:04:23;4.70;;;1.67;;
77350;SDS011;66420;50.246;14.320;2024-02-23T16:07:08;9.23;;;3.50;;
77350;SDS011;66420;50.246;14.320;2024-02-23T16:09:53;10.45;;;4.15;;
77350;SDS011;66420;50.246;14.320;2024-02-23T16:12:38;7.65;;;3.25;;
77350;SDS011;66420;50.246;14.320;2024-02-23T16:15:23;5.78;;;2.00;;
77350;SDS011;66420;50.246;14.320;2024-02-23T16:18:08;4.88;;;2.13;;
77350;SDS011;66420;50.246;14.320;2024-02-23T16:20:53;5.00;;;2.17;;